sensor_id;sensor_type;location;lat;lon;timestamp;pressure;altitude;pressure_sealevel;temperature;humidity
36062;BME280;22123;52.412;20.970;2023-01-27T00:00:27;101000.16;;;-1.66;100.00
36062;BME280;22123;52.412;20.970;2023-01-27T00:02:53;100947.16;;;-1.96;100.00
36062;BME280;22123;52.412;20.970;2023-01-27T00:05:19;101063.06;;;-1.23;100.00
36062;BME280;22123;52.412;20.970;2023-01-27T00:07:45;101047.53;;;-1.29;100.00
36062;BME280;22123;52.412;20.970;2023-01-27T00:10:14;100977.41;;;-1.68;100.00
36062;BME280;22123;52.412;20.970;2023-01-27T00:12:40;101136.47;;;-0.79;100.00
36062;BME280;22123;52.412;20.970;2023-01-27T00:15:07;101067.41;;;-1.22;100.00
36062;BME280;22123;52.412;20.970;2023-01-27T00:17:34;101084.09;;;-1.04;100.00
36062;BME280;22123;52.412;20.970;2023-01-27T00:20:00;101038.31;;;-1.38;100.00
36062;BME280;22123;52.412;20.970;2023-01-27T00:22:26;101019.69;;;-1.52;100.00
36062;BME280;22123;52.412;20.970;2023-01-27T00:24:52;101043.91;;;-1.44;100.00
36062;BME280;22123;52.412;20.970;2023-01-27T00:27:18;101125.44;;;-0.87;100.00
36062;BME280;22123;52.412;20.970;2023-01-27T00:29:44;101035.44;;;-1.51;100.00
36062;BME280;22123;52.412;20.970;2023-01-27T00:32:10;100875.69;;;-2.42;100.00
36062;BME280;22123;52.412;20.970;2023-01-27T00:34:36;100971.63;;;-1.93;100.00
36062;BME280;22123;52.412;20.970;2023-01-27T00:37:01;100968.78;;;-2.05;100.00
36062;BME280;22123;52.412;20.970;2023-01-27T00:39:27;101056.88;;;-1.40;100.00
36062;BME280;22123;52.412;20.970;2023-01-27T00:41:53;101076.00;;;-1.34;100.00
36062;BME280;22123;52.412;20.970;2023-01-27T00:44:19;101006.00;;;-1.77;100.00
36062;BME280;22123;52.412;20.970;2023-01-27T00:46:46;100969.28;;;-1.99;100.00
36062;BME280;22123;52.412;20.970;2023-01-27T00:49:12;101057.38;;;-1.49;100.00
36062;BME280;22123;52.412;20.970;2023-01-27T00:51:38;101146.59;;;-0.87;100.00
36062;BME280;22123;52.412;20.970;2023-01-27T00:54:04;101069.03;;;-1.53;100.00
36062;BME280;22123;52.412;20.970;2023-01-27T00:56:30;100982.25;;;-1.94;100.00
36062;BME280;22123;52.412;20.970;2023-01-27T00:58:56;101044.53;;;-1.57;100.00
36062;BME280;22123;52.412;20.970;2023-01-27T01:01:22;101024.75;;;-1.65;100.00
36062;BME280;22123;52.412;20.970;2023-01-27T01:03:47;101024.66;;;-1.64;100.00
36062;BME280;22123;52.412;20.970;2023-01-27T01:06:15;101037.09;;;-1.48;100.00
36062;BME280;22123;52.412;20.970;2023-01-27T01:08:41;101010.63;;;-1.64;100.00
36062;BME280;22123;52.412;20.970;2023-01-27T01:11:10;101100.16;;;-1.09;100.00
36062;BME280;22123;52.412;20.970;2023-01-27T01:13:37;100989.38;;;-1.79;100.00
36062;BME280;22123;52.412;20.970;2023-01-27T01:16:14;100789.66;;;-3.13;100.00
36062;BME280;22123;52.412;20.970;2023-01-27T01:18:40;101005.34;;;-1.64;100.00
36062;BME280;22123;52.412;20.970;2023-01-27T01:21:07;101000.72;;;-1.77;100.00
36062;BME280;22123;52.412;20.970;2023-01-27T01:23:36;100965.22;;;-1.88;100.00
36062;BME280;22123;52.412;20.970;2023-01-27T01:26:02;101135.09;;;-0.86;100.00
36062;BME280;22123;52.412;20.970;2023-01-27T01:28:28;101153.59;;;-0.86;100.00
36062;BME280;22123;52.412;20.970;2023-01-27T01:30:54;100969.44;;;-2.02;100.00
36062;BME280;22123;52.412;20.970;2023-01-27T01:33:24;100828.56;;;-2.84;100.00
36062;BME280;22123;52.412;20.970;2023-01-27T01:35:49;101148.41;;;-0.88;100.00
36062;BME280;22123;52.412;20.970;2023-01-27T01:38:15;100999.94;;;-1.79;100.00
36062;BME280;22123;52.412;20.970;2023-01-27T01:40:43;101032.22;;;-1.56;100.00
36062;BME280;22123;52.412;20.970;2023-01-27T01:43:16;101031.50;;;-1.60;100.00
36062;BME280;22123;52.412;20.970;2023-01-27T01:45:46;100886.47;;;-2.47;100.00
36062;BME280;22123;52.412;20.970;2023-01-27T01:48:20;100969.38;;;-2.00;100.00
36062;BME280;22123;52.412;20.970;2023-01-27T01:53:24;101037.94;;;-1.48;100.00
36062;BME280;22123;52.412;20.970;2023-01-27T01:55:51;101000.66;;;-1.75;100.00
36062;BME280;22123;52.412;20.970;2023-01-27T01:58:18;101012.81;;;-1.55;100.00
36062;BME280;22123;52.412;20.970;2023-01-27T02:00:43;101000.56;;;-1.73;100.00
36062;BME280;22123;52.412;20.970;2023-01-27T02:03:10;100781.19;;;-3.03;100.00
36062;BME280;22123;52.412;20.970;2023-01-27T02:05:39;101070.47;;;-1.30;100.00
36062;BME280;22123;52.412;20.970;2023-01-27T02:08:19;101076.59;;;-1.29;100.00
36062;BME280;22123;52.412;20.970;2023-01-27T02:10:46;101039.34;;;-1.58;100.00
36062;BME280;22123;52.412;20.970;2023-01-27T02:13:13;100987.22;;;-1.88;100.00
36062;BME280;22123;52.412;20.970;2023-01-27T02:15:39;100962.63;;;-2.06;100.00
36062;BME280;22123;52.412;20.970;2023-01-27T02:18:05;101045.41;;;-1.56;100.00
36062;BME280;22123;52.412;20.970;2023-01-27T02:23:29;101143.28;;;-0.91;100.00
36062;BME280;22123;52.412;20.970;2023-01-27T02:29:08;100934.94;;;-2.32;100.00
36062;BME280;22123;52.412;20.970;2023-01-27T02:31:34;101007.00;;;-1.79;100.00
36062;BME280;22123;52.412;20.970;2023-01-27T02:34:05;101045.34;;;-1.54;100.00
36062;BME280;22123;52.412;20.970;2023-01-27T02:36:35;100852.72;;;-2.75;100.00
36062;BME280;22123;52.412;20.970;2023-01-27T02:39:04;101019.56;;;-1.67;100.00
36062;BME280;22123;52.412;20.970;2023-01-27T02:42:02;101144.19;;;-0.92;100.00
36062;BME280;22123;52.412;20.970;2023-01-27T02:44:29;101020.88;;;-1.76;100.00
36062;BME280;22123;52.412;20.970;2023-01-27T02:46:56;101071.34;;;-1.47;100.00
36062;BME280;22123;52.412;20.970;2023-01-27T02:49:21;101063.56;;;-1.50;100.00
36062;BME280;22123;52.412;20.970;2023-01-27T02:51:47;101037.81;;;-1.62;100.00
36062;BME280;22123;52.412;20.970;2023-01-27T02:54:13;101016.69;;;-1.80;100.00
36062;BME280;22123;52.412;20.970;2023-01-27T02:56:39;100924.47;;;-2.34;100.00
36062;BME280;22123;52.412;20.970;2023-01-27T02:59:05;101115.91;;;-1.23;100.00
36062;BME280;22123;52.412;20.970;2023-01-27T03:01:31;100961.84;;;-2.08;100.00
36062;BME280;22123;52.412;20.970;2023-01-27T03:03:57;100889.72;;;-2.59;100.00
36062;BME280;22123;52.412;20.970;2023-01-27T03:06:23;100995.31;;;-1.91;100.00
36062;BME280;22123;52.412;20.970;2023-01-27T03:08:49;101026.63;;;-1.67;100.00
36062;BME280;22123;52.412;20.970;2023-01-27T03:11:15;100997.63;;;-1.85;100.00
36062;BME280;22123;52.412;20.970;2023-01-27T03:13:41;101102.09;;;-1.28;100.00
36062;BME280;22123;52.412;20.970;2023-01-27T03:16:09;100974.25;;;-2.10;100.00
36062;BME280;22123;52.412;20.970;2023-01-27T03:18:35;101042.16;;;-1.61;100.00
36062;BME280;22123;52.412;20.970;2023-01-27T03:21:04;101046.75;;;-1.65;100.00
36062;BME280;22123;52.412;20.970;2023-01-27T03:23:30;100955.44;;;-2.20;100.00
36062;BME280;22123;52.412;20.970;2023-01-27T03:25:56;101167.47;;;-0.98;100.00
36062;BME280;22123;52.412;20.970;2023-01-27T03:28:22;101096.16;;;-1.33;100.00
36062;BME280;22123;52.412;20.970;2023-01-27T03:30:48;101102.50;;;-1.36;100.00
36062;BME280;22123;52.412;20.970;2023-01-27T03:33:14;101158.59;;;-0.97;100.00
36062;BME280;22123;52.412;20.970;2023-01-27T03:35:40;100973.81;;;-2.18;100.00
36062;BME280;22123;52.412;20.970;2023-01-27T03:38:09;101161.31;;;-0.99;100.00
36062;BME280;22123;52.412;20.970;2023-01-27T03:40:37;101041.25;;;-1.78;100.00
36062;BME280;22123;52.412;20.970;2023-01-27T03:43:02;101136.44;;;-1.28;100.00
36062;BME280;22123;52.412;20.970;2023-01-27T03:45:28;101020.22;;;-1.97;100.00
36062;BME280;22123;52.412;20.970;2023-01-27T03:47:54;101099.38;;;-1.44;100.00
36062;BME280;22123;52.412;20.970;2023-01-27T03:50:20;100999.47;;;-2.04;100.00
36062;BME280;22123;52.412;20.970;2023-01-27T03:52:49;100613.19;;;-4.38;100.00
36062;BME280;22123;52.412;20.970;2023-01-27T03:55:15;101009.66;;;-1.97;100.00
36062;BME280;22123;52.412;20.970;2023-01-27T03:57:42;100911.13;;;-2.66;100.00
36062;BME280;22123;52.412;20.970;2023-01-27T04:00:09;101169.66;;;-1.07;100.00
36062;BME280;22123;52.412;20.970;2023-01-27T04:02:35;101109.22;;;-1.48;100.00
36062;BME280;22123;52.412;20.970;2023-01-27T04:05:01;101145.03;;;-1.25;100.00
36062;BME280;22123;52.412;20.970;2023-01-27T04:07:27;101095.59;;;-1.56;100.00
36062;BME280;22123;52.412;20.970;2023-01-27T04:09:53;101086.97;;;-1.60;100.00
36062;BME280;22123;52.412;20.970;2023-01-27T04:12:18;101022.78;;;-1.95;100.00
36062;BME280;22123;52.412;20.970;2023-01-27T04:14:44;101017.19;;;-2.06;100.00
36062;BME280;22123;52.412;20.970;2023-01-27T04:17:17;101179.44;;;-1.09;100.00
36062;BME280;22123;52.412;20.970;2023-01-27T04:19:44;101183.97;;;-1.11;100.00
36062;BME280;22123;52.412;20.970;2023-01-27T04:22:12;101115.22;;;-1.44;100.00
36062;BME280;22123;52.412;20.970;2023-01-27T04:24:38;101182.25;;;-1.12;100.00
36062;BME280;22123;52.412;20.970;2023-01-27T04:27:06;101182.25;;;-1.12;100.00
36062;BME280;22123;52.412;20.970;2023-01-27T04:29:35;101185.75;;;-1.11;100.00
36062;BME280;22123;52.412;20.970;2023-01-27T04:32:02;101080.69;;;-1.75;100.00
36062;BME280;22123;52.412;20.970;2023-01-27T04:34:29;101059.50;;;-1.90;100.00
36062;BME280;22123;52.412;20.970;2023-01-27T04:36:55;100994.69;;;-2.31;100.00
36062;BME280;22123;52.412;20.970;2023-01-27T04:39:22;101175.28;;;-1.13;100.00
36062;BME280;22123;52.412;20.970;2023-01-27T04:41:48;101191.97;;;-1.12;100.00
36062;BME280;22123;52.412;20.970;2023-01-27T04:44:14;100950.28;;;-2.58;100.00
36062;BME280;22123;52.412;20.970;2023-01-27T04:46:40;101096.44;;;-1.73;100.00
36062;BME280;22123;52.412;20.970;2023-01-27T04:49:07;101191.66;;;-1.06;100.00
36062;BME280;22123;52.412;20.970;2023-01-27T04:51:33;101153.13;;;-1.45;100.00
36062;BME280;22123;52.412;20.970;2023-01-27T04:53:59;101064.38;;;-1.83;100.00
36062;BME280;22123;52.412;20.970;2023-01-27T04:56:32;101192.44;;;-1.04;100.00
36062;BME280;22123;52.412;20.970;2023-01-27T05:01:47;101029.47;;;-2.05;100.00
36062;BME280;22123;52.412;20.970;2023-01-27T05:04:13;101202.47;;;-1.11;100.00
36062;BME280;22123;52.412;20.970;2023-01-27T05:06:39;101027.56;;;-2.21;100.00
36062;BME280;22123;52.412;20.970;2023-01-27T05:09:05;101071.84;;;-1.91;100.00
36062;BME280;22123;52.412;20.970;2023-01-27T05:11:30;101030.22;;;-2.21;100.00
36062;BME280;22123;52.412;20.970;2023-01-27T05:13:56;100824.31;;;-3.40;100.00
36062;BME280;22123;52.412;20.970;2023-01-27T05:16:23;100982.69;;;-2.56;100.00
36062;BME280;22123;52.412;20.970;2023-01-27T05:18:50;101044.03;;;-2.16;100.00
36062;BME280;22123;52.412;20.970;2023-01-27T05:21:19;100899.44;;;-3.14;100.00
36062;BME280;22123;52.412;20.970;2023-01-27T05:23:46;101209.78;;;-1.16;100.00
36062;BME280;22123;52.412;20.970;2023-01-27T05:26:19;101223.06;;;-1.17;100.00
36062;BME280;22123;52.412;20.970;2023-01-27T05:28:47;101059.31;;;-2.22;100.00
36062;BME280;22123;52.412;20.970;2023-01-27T05:31:15;101033.50;;;-2.35;100.00
36062;BME280;22123;52.412;20.970;2023-01-27T05:33:42;100846.03;;;-3.54;100.00
36062;BME280;22123;52.412;20.970;2023-01-27T05:36:10;100498.00;;;-5.60;100.00
36062;BME280;22123;52.412;20.970;2023-01-27T05:38:36;100977.56;;;-2.76;100.00
36062;BME280;22123;52.412;20.970;2023-01-27T05:41:04;100967.25;;;-3.00;100.00
36062;BME280;22123;52.412;20.970;2023-01-27T05:43:33;101239.06;;;-1.20;100.00
36062;BME280;22123;52.412;20.970;2023-01-27T05:46:09;101060.06;;;-2.20;100.00
36062;BME280;22123;52.412;20.970;2023-01-27T05:48:39;100678.28;;;-4.62;100.00
36062;BME280;22123;52.412;20.970;2023-01-27T05:51:08;100559.59;;;-5.29;100.00
36062;BME280;22123;52.412;20.970;2023-01-27T05:53:35;101099.91;;;-2.07;100.00
36062;BME280;22123;52.412;20.970;2023-01-27T05:56:01;101157.09;;;-1.71;100.00
36062;BME280;22123;52.412;20.970;2023-01-27T05:58:27;100897.75;;;-3.53;100.00
36062;BME280;22123;52.412;20.970;2023-01-27T06:01:01;100838.41;;;-3.60;100.00
36062;BME280;22123;52.412;20.970;2023-01-27T06:03:30;101183.50;;;-1.54;100.00
36062;BME280;22123;52.412;20.970;2023-01-27T06:05:56;101223.13;;;-1.36;100.00
36062;BME280;22123;52.412;20.970;2023-01-27T06:08:24;100946.25;;;-3.02;100.00
36062;BME280;22123;52.412;20.970;2023-01-27T06:10:53;101114.59;;;-2.02;100.00
36062;BME280;22123;52.412;20.970;2023-01-27T06:13:23;100729.06;;;-4.42;100.00
36062;BME280;22123;52.412;20.970;2023-01-27T06:15:49;101002.53;;;-2.66;100.00
36062;BME280;22123;52.412;20.970;2023-01-27T06:18:17;100965.94;;;-2.91;100.00
36062;BME280;22123;52.412;20.970;2023-01-27T06:20:46;100844.81;;;-3.66;100.00
36062;BME280;22123;52.412;20.970;2023-01-27T06:23:15;101252.00;;;-1.14;100.00
36062;BME280;22123;52.412;20.970;2023-01-27T06:25:44;101099.44;;;-2.16;100.00
36062;BME280;22123;52.412;20.970;2023-01-27T06:28:21;101267.75;;;-1.13;100.00
36062;BME280;22123;52.412;20.970;2023-01-27T06:30:54;100808.41;;;-3.94;100.00
36062;BME280;22123;52.412;20.970;2023-01-27T06:33:22;101121.63;;;-2.20;100.00
36062;BME280;22123;52.412;20.970;2023-01-27T06:36:00;101140.53;;;-1.93;100.00
36062;BME280;22123;52.412;20.970;2023-01-27T06:38:26;101152.09;;;-1.95;100.00
36062;BME280;22123;52.412;20.970;2023-01-27T06:40:52;101228.97;;;-1.47;100.00
36062;BME280;22123;52.412;20.970;2023-01-27T06:43:18;101161.69;;;-1.94;100.00
36062;BME280;22123;52.412;20.970;2023-01-27T06:45:44;101200.72;;;-1.64;100.00
36062;BME280;22123;52.412;20.970;2023-01-27T06:48:09;101203.53;;;-1.67;100.00
36062;BME280;22123;52.412;20.970;2023-01-27T06:50:35;101110.50;;;-2.27;100.00
36062;BME280;22123;52.412;20.970;2023-01-27T06:53:04;101158.44;;;-1.99;100.00
36062;BME280;22123;52.412;20.970;2023-01-27T06:55:30;101220.72;;;-1.59;100.00
36062;BME280;22123;52.412;20.970;2023-01-27T06:57:56;101127.34;;;-2.12;100.00
36062;BME280;22123;52.412;20.970;2023-01-27T07:00:24;100998.13;;;-2.85;100.00
36062;BME280;22123;52.412;20.970;2023-01-27T07:02:50;101119.59;;;-2.15;100.00
36062;BME280;22123;52.412;20.970;2023-01-27T07:05:16;101049.16;;;-2.49;100.00
36062;BME280;22123;52.412;20.970;2023-01-27T07:07:42;101105.56;;;-2.15;100.00
36062;BME280;22123;52.412;20.970;2023-01-27T07:10:08;101104.00;;;-2.19;100.00
36062;BME280;22123;52.412;20.970;2023-01-27T07:12:34;101284.94;;;-1.04;100.00
36062;BME280;22123;52.412;20.970;2023-01-27T07:15:00;100858.13;;;-3.69;100.00
36062;BME280;22123;52.412;20.970;2023-01-27T07:17:26;101236.81;;;-1.28;100.00
36062;BME280;22123;52.412;20.970;2023-01-27T07:19:52;101089.56;;;-2.30;100.00
36062;BME280;22123;52.412;20.970;2023-01-27T07:22:22;101019.91;;;-2.62;100.00
36062;BME280;22123;52.412;20.970;2023-01-27T07:24:48;100924.97;;;-3.16;100.00
36062;BME280;22123;52.412;20.970;2023-01-27T07:27:15;100602.84;;;-5.17;100.00
36062;BME280;22123;52.412;20.970;2023-01-27T07:29:44;101309.81;;;-0.73;100.00
36062;BME280;22123;52.412;20.970;2023-01-27T07:32:12;100919.28;;;-3.07;100.00
36062;BME280;22123;52.412;20.970;2023-01-27T07:34:38;101184.75;;;-1.44;100.00
36062;BME280;22123;52.412;20.970;2023-01-27T07:37:09;100926.69;;;-2.78;100.00
36062;BME280;22123;52.412;20.970;2023-01-27T07:39:36;100955.84;;;-2.64;100.00
36062;BME280;22123;52.412;20.970;2023-01-27T07:42:06;100803.03;;;-3.36;100.00
36062;BME280;22123;52.412;20.970;2023-01-27T07:44:42;100726.38;;;-3.83;100.00
36062;BME280;22123;52.412;20.970;2023-01-27T07:47:08;100982.88;;;-2.24;100.00
36062;BME280;22123;52.412;20.970;2023-01-27T07:49:34;100956.28;;;-2.37;100.00
36062;BME280;22123;52.412;20.970;2023-01-27T07:52:00;100707.59;;;-3.58;100.00
36062;BME280;22123;52.412;20.970;2023-01-27T07:54:31;100462.34;;;-5.07;100.00
36062;BME280;22123;52.412;20.970;2023-01-27T07:57:00;100847.09;;;-2.85;100.00
36062;BME280;22123;52.412;20.970;2023-01-27T07:59:27;101195.84;;;-0.68;100.00
36062;BME280;22123;52.412;20.970;2023-01-27T08:01:58;100913.84;;;-2.32;100.00
36062;BME280;22123;52.412;20.970;2023-01-27T08:04:49;101070.53;;;-1.31;100.00
36062;BME280;22123;52.412;20.970;2023-01-27T08:07:18;100985.59;;;-1.90;100.00
36062;BME280;22123;52.412;20.970;2023-01-27T08:09:44;101204.09;;;-0.57;100.00
36062;BME280;22123;52.412;20.970;2023-01-27T08:12:10;101222.38;;;-0.37;100.00
36062;BME280;22123;52.412;20.970;2023-01-27T08:14:35;101222.06;;;-0.30;100.00
36062;BME280;22123;52.412;20.970;2023-01-27T08:17:01;100531.78;;;-4.39;100.00
36062;BME280;22123;52.412;20.970;2023-01-27T08:19:27;100821.50;;;-2.66;100.00
36062;BME280;22123;52.412;20.970;2023-01-27T08:21:53;101235.22;;;-0.13;100.00
36062;BME280;22123;52.412;20.970;2023-01-27T08:24:19;101000.34;;;-1.53;100.00
36062;BME280;22123;52.412;20.970;2023-01-27T08:26:45;101083.22;;;-1.05;100.00
36062;BME280;22123;52.412;20.970;2023-01-27T08:29:14;101323.28;;;0.39;100.00
36062;BME280;22123;52.412;20.970;2023-01-27T08:31:40;101049.91;;;-1.25;100.00
36062;BME280;22123;52.412;20.970;2023-01-27T08:34:06;101037.84;;;-1.29;100.00
36062;BME280;22123;52.412;20.970;2023-01-27T08:36:32;100855.59;;;-2.45;100.00
36062;BME280;22123;52.412;20.970;2023-01-27T08:38:58;101338.09;;;0.43;100.00
36062;BME280;22123;52.412;20.970;2023-01-27T08:41:25;100989.16;;;-1.58;100.00
36062;BME280;22123;52.412;20.970;2023-01-27T08:43:53;101110.19;;;-0.98;100.00
36062;BME280;22123;52.412;20.970;2023-01-27T08:46:19;100713.19;;;-3.29;100.00
36062;BME280;22123;52.412;20.970;2023-01-27T08:48:45;101153.38;;;-0.65;100.00
36062;BME280;22123;52.412;20.970;2023-01-27T08:51:13;101178.56;;;-0.42;100.00
36062;BME280;22123;52.412;20.970;2023-01-27T08:53:39;101199.63;;;-0.23;100.00
36062;BME280;22123;52.412;20.970;2023-01-27T08:56:07;101276.13;;;0.29;100.00
36062;BME280;22123;52.412;20.970;2023-01-27T08:58:34;101276.91;;;0.31;100.00
36062;BME280;22123;52.412;20.970;2023-01-27T09:01:02;101222.00;;;0.03;100.00
36062;BME280;22123;52.412;20.970;2023-01-27T09:03:31;101085.13;;;-0.91;100.00
36062;BME280;22123;52.412;20.970;2023-01-27T09:05:57;101236.75;;;0.23;100.00
36062;BME280;22123;52.412;20.970;2023-01-27T09:08:26;101294.38;;;0.66;100.00
36062;BME280;22123;52.412;20.970;2023-01-27T09:10:53;101335.66;;;0.86;100.00
36062;BME280;22123;52.412;20.970;2023-01-27T09:13:19;101098.38;;;-0.59;100.00
36062;BME280;22123;52.412;20.970;2023-01-27T09:15:45;100937.75;;;-1.51;100.00
36062;BME280;22123;52.412;20.970;2023-01-27T09:18:11;101331.44;;;0.98;100.00
36062;BME280;22123;52.412;20.970;2023-01-27T09:20:40;101212.22;;;0.36;100.00
36062;BME280;22123;52.412;20.970;2023-01-27T09:23:14;101194.38;;;0.23;100.00
36062;BME280;22123;52.412;20.970;2023-01-27T09:25:39;100911.50;;;-1.38;100.00
36062;BME280;22123;52.412;20.970;2023-01-27T09:28:08;101166.63;;;0.14;100.00
36062;BME280;22123;52.412;20.970;2023-01-27T09:30:34;101150.16;;;0.09;100.00
36062;BME280;22123;52.412;20.970;2023-01-27T09:33:00;101259.31;;;0.77;100.00
36062;BME280;22123;52.412;20.970;2023-01-27T09:35:35;101273.16;;;0.82;100.00
36062;BME280;22123;52.412;20.970;2023-01-27T09:38:04;101276.31;;;0.89;100.00
36062;BME280;22123;52.412;20.970;2023-01-27T09:40:33;101303.25;;;1.11;100.00
36062;BME280;22123;52.412;20.970;2023-01-27T09:43:37;101221.81;;;0.68;100.00
36062;BME280;22123;52.412;20.970;2023-01-27T09:49:16;101209.72;;;0.79;100.00
36062;BME280;22123;52.412;20.970;2023-01-27T09:55:01;101249.16;;;0.99;100.00
36062;BME280;22123;52.412;20.970;2023-01-27T09:57:44;101228.69;;;0.87;100.00
36062;BME280;22123;52.412;20.970;2023-01-27T10:20:38;101253.19;;;1.35;100.00
36062;BME280;22123;52.412;20.970;2023-01-27T10:26:07;101108.53;;;0.42;100.00
36062;BME280;22123;52.412;20.970;2023-01-27T10:28:41;101257.81;;;1.17;100.00
36062;BME280;22123;52.412;20.970;2023-01-27T10:31:19;101256.63;;;1.07;100.00
36062;BME280;22123;52.412;20.970;2023-01-27T10:33:54;100999.50;;;-0.56;100.00
36062;BME280;22123;52.412;20.970;2023-01-27T10:36:47;101297.97;;;1.11;100.00
36062;BME280;22123;52.412;20.970;2023-01-27T10:39:52;101324.09;;;1.33;100.00
36062;BME280;22123;52.412;20.970;2023-01-27T10:42:36;101368.16;;;1.50;100.00
36062;BME280;22123;52.412;20.970;2023-01-27T10:50:36;101354.19;;;1.32;100.00
36062;BME280;22123;52.412;20.970;2023-01-27T10:56:18;101241.06;;;0.86;100.00
36062;BME280;22123;52.412;20.970;2023-01-27T10:58:59;101360.41;;;1.62;100.00
36062;BME280;22123;52.412;20.970;2023-01-27T11:01:33;101379.94;;;1.61;100.00
36062;BME280;22123;52.412;20.970;2023-01-27T11:04:57;101065.75;;;-0.27;100.00
36062;BME280;22123;52.412;20.970;2023-01-27T11:07:18;101239.19;;;0.58;100.00
36062;BME280;22123;52.412;20.970;2023-01-27T11:10:03;101291.34;;;0.88;100.00
36062;BME280;22123;52.412;20.970;2023-01-27T11:12:35;101335.97;;;1.12;100.00
36062;BME280;22123;52.412;20.970;2023-01-27T11:17:56;101292.97;;;0.91;100.00
36062;BME280;22123;52.412;20.970;2023-01-27T11:20:38;101218.78;;;0.44;100.00
36062;BME280;22123;52.412;20.970;2023-01-27T11:23:11;101346.78;;;1.23;100.00
36062;BME280;22123;52.412;20.970;2023-01-27T11:28:50;101270.63;;;0.64;100.00
36062;BME280;22123;52.412;20.970;2023-01-27T11:31:48;101016.47;;;-0.76;100.00
36062;BME280;22123;52.412;20.970;2023-01-27T11:34:26;101315.41;;;1.15;100.00
36062;BME280;22123;52.412;20.970;2023-01-27T11:36:57;101202.78;;;0.46;100.00
36062;BME280;22123;52.412;20.970;2023-01-27T11:39:25;101062.75;;;-0.21;100.00
36062;BME280;22123;52.412;20.970;2023-01-27T11:41:53;101027.63;;;-0.55;100.00
36062;BME280;22123;52.412;20.970;2023-01-27T11:44:23;101339.06;;;1.49;100.00
36062;BME280;22123;52.412;20.970;2023-01-27T11:46:51;101129.31;;;0.19;100.00
36062;BME280;22123;52.412;20.970;2023-01-27T11:49:25;101148.78;;;0.18;100.00
36062;BME280;22123;52.412;20.970;2023-01-27T11:52:01;100941.84;;;-0.97;100.00
36062;BME280;22123;52.412;20.970;2023-01-27T11:54:38;101272.66;;;1.06;100.00
36062;BME280;22123;52.412;20.970;2023-01-27T11:57:13;101215.47;;;0.71;100.00
36062;BME280;22123;52.412;20.970;2023-01-27T11:59:41;101284.59;;;1.13;100.00
36062;BME280;22123;52.412;20.970;2023-01-27T12:07:16;101282.09;;;0.95;100.00
36062;BME280;22123;52.412;20.970;2023-01-27T12:09:43;100839.25;;;-1.85;100.00
36062;BME280;22123;52.412;20.970;2023-01-27T12:14:48;101001.81;;;-0.98;100.00
36062;BME280;22123;52.412;20.970;2023-01-27T12:17:21;101220.84;;;0.39;100.00
36062;BME280;22123;52.412;20.970;2023-01-27T12:19:51;101291.72;;;0.82;100.00
36062;BME280;22123;52.412;20.970;2023-01-27T12:22:35;101342.75;;;1.01;100.00
36062;BME280;22123;52.412;20.970;2023-01-27T12:25:23;101204.13;;;0.07;100.00
36062;BME280;22123;52.412;20.970;2023-01-27T12:28:03;101148.38;;;-0.38;100.00
36062;BME280;22123;52.412;20.970;2023-01-27T12:30:33;100974.28;;;-1.59;100.00
36062;BME280;22123;52.412;20.970;2023-01-27T12:33:11;100856.56;;;-2.13;100.00
36062;BME280;22123;52.412;20.970;2023-01-27T12:35:47;101006.31;;;-1.32;100.00
36062;BME280;22123;52.412;20.970;2023-01-27T12:38:21;100790.22;;;-2.89;100.00
36062;BME280;22123;52.412;20.970;2023-01-27T12:41:13;101189.88;;;-0.23;100.00
36062;BME280;22123;52.412;20.970;2023-01-27T12:46:33;101069.94;;;-0.87;100.00
36062;BME280;22123;52.412;20.970;2023-01-27T12:49:10;101329.66;;;0.82;100.00
36062;BME280;22123;52.412;20.970;2023-01-27T12:51:39;100959.16;;;-1.40;100.00
36062;BME280;22123;52.412;20.970;2023-01-27T12:54:21;101328.69;;;0.99;100.00
36062;BME280;22123;52.412;20.970;2023-01-27T12:56:52;101160.31;;;0.01;100.00
36062;BME280;22123;52.412;20.970;2023-01-27T12:59:20;101129.34;;;-0.13;100.00
36062;BME280;22123;52.412;20.970;2023-01-27T13:07:52;101033.63;;;-0.67;100.00
36062;BME280;22123;52.412;20.970;2023-01-27T13:10:21;100757.31;;;-2.31;100.00
36062;BME280;22123;52.412;20.970;2023-01-27T13:12:53;101369.47;;;1.13;100.00
36062;BME280;22123;52.412;20.970;2023-01-27T13:15:24;101120.63;;;-0.31;100.00
36062;BME280;22123;52.412;20.970;2023-01-27T13:18:11;100658.44;;;-3.23;100.00
36062;BME280;22123;52.412;20.970;2023-01-27T13:20:44;101299.06;;;0.77;100.00
36062;BME280;22123;52.412;20.970;2023-01-27T13:23:22;101199.09;;;0.02;100.00
36062;BME280;22123;52.412;20.970;2023-01-27T13:39:16;101035.38;;;-1.16;100.00
36062;BME280;22123;52.412;20.970;2023-01-27T13:42:38;101365.94;;;0.82;100.00
36062;BME280;22123;52.412;20.970;2023-01-27T13:45:05;101317.59;;;0.62;100.00
36062;BME280;22123;52.412;20.970;2023-01-27T13:47:58;100949.16;;;-1.66;100.00
36062;BME280;22123;52.412;20.970;2023-01-27T13:50:39;101020.47;;;-1.17;100.00
36062;BME280;22123;52.412;20.970;2023-01-27T13:53:10;101354.22;;;0.86;100.00
36062;BME280;22123;52.412;20.970;2023-01-27T13:59:06;101345.47;;;0.84;100.00
36062;BME280;22123;52.412;20.970;2023-01-27T14:04:37;101180.56;;;-0.30;100.00
36062;BME280;22123;52.412;20.970;2023-01-27T14:10:14;101300.38;;;0.38;100.00
36062;BME280;22123;52.412;20.970;2023-01-27T14:15:37;101226.75;;;-0.20;100.00
36062;BME280;22123;52.412;20.970;2023-01-27T14:18:14;101353.91;;;0.60;100.00
36062;BME280;22123;52.412;20.970;2023-01-27T14:37:15;101346.94;;;0.26;100.00
36062;BME280;22123;52.412;20.970;2023-01-27T14:39:54;101250.72;;;-0.39;100.00